sensor_id;sensor_type;location;lat;lon;timestamp;pressure;altitude;pressure_sealevel;temperature;humidity
13604;BME280;24578;48.264;11.436;2022-09-13T00:00:41;95913.19;;;10.14;100.00
13604;BME280;24578;48.264;11.436;2022-09-13T00:03:42;95910.81;;;10.11;100.00
13604;BME280;24578;48.264;11.436;2022-09-13T00:06:42;95910.25;;;10.07;100.00
13604;BME280;24578;48.264;11.436;2022-09-13T00:09:42;95905.28;;;10.04;100.00
13604;BME280;24578;48.264;11.436;2022-09-13T00:12:42;95897.06;;;9.99;100.00
13604;BME280;24578;48.264;11.436;2022-09-13T00:15:43;95900.94;;;9.93;100.00
13604;BME280;24578;48.264;11.436;2022-09-13T00:18:44;95898.56;;;9.90;100.00
13604;BME280;24578;48.264;11.436;2022-09-13T00:21:44;95880.72;;;9.87;100.00
13604;BME280;24578;48.264;11.436;2022-09-13T00:24:44;95880.00;;;9.85;100.00
13604;BME280;24578;48.264;11.436;2022-09-13T00:27:44;95880.22;;;9.82;100.00
13604;BME280;24578;48.264;11.436;2022-09-13T00:30:44;95883.75;;;9.81;100.00
13604;BME280;24578;48.264;11.436;2022-09-13T00:33:45;95884.81;;;9.78;100.00
13604;BME280;24578;48.264;11.436;2022-09-13T00:36:45;95883.16;;;9.77;100.00
13604;BME280;24578;48.264;11.436;2022-09-13T00:39:45;95882.31;;;9.77;100.00
13604;BME280;24578;48.264;11.436;2022-09-13T00:42:45;95880.81;;;9.74;100.00
13604;BME280;24578;48.264;11.436;2022-09-13T00:45:45;95889.63;;;9.71;100.00
13604;BME280;24578;48.264;11.436;2022-09-13T00:48:46;95885.47;;;9.69;100.00
13604;BME280;24578;48.264;11.436;2022-09-13T00:51:51;95883.13;;;9.66;100.00
13604;BME280;24578;48.264;11.436;2022-09-13T00:54:58;95877.28;;;9.64;100.00
13604;BME280;24578;48.264;11.436;2022-09-13T00:58:01;95871.47;;;9.60;100.00
13604;BME280;24578;48.264;11.436;2022-09-13T01:01:04;95859.63;;;9.57;100.00
13604;BME280;24578;48.264;11.436;2022-09-13T01:04:07;95850.94;;;9.58;100.00
13604;BME280;24578;48.264;11.436;2022-09-13T01:07:08;95853.53;;;9.58;100.00
13604;BME280;24578;48.264;11.436;2022-09-13T01:10:10;95849.28;;;9.57;100.00
13604;BME280;24578;48.264;11.436;2022-09-13T01:13:12;95850.34;;;9.55;100.00
13604;BME280;24578;48.264;11.436;2022-09-13T01:16:15;95851.16;;;9.55;100.00
13604;BME280;24578;48.264;11.436;2022-09-13T01:19:16;95858.81;;;9.57;100.00
13604;BME280;24578;48.264;11.436;2022-09-13T01:25:45;95849.06;;;9.60;100.00
13604;BME280;24578;48.264;11.436;2022-09-13T01:28:54;95844.94;;;9.58;100.00
13604;BME280;24578;48.264;11.436;2022-09-13T01:32:22;95845.19;;;9.55;100.00
13604;BME280;24578;48.264;11.436;2022-09-13T01:38:36;95833.28;;;9.52;100.00
13604;BME280;24578;48.264;11.436;2022-09-13T01:48:17;95829.97;;;9.39;100.00
13604;BME280;24578;48.264;11.436;2022-09-13T01:51:22;95836.44;;;9.33;100.00
13604;BME280;24578;48.264;11.436;2022-09-13T01:57:42;95839.78;;;9.22;100.00
13604;BME280;24578;48.264;11.436;2022-09-13T02:00:47;95843.66;;;9.17;100.00
13604;BME280;24578;48.264;11.436;2022-09-13T02:03:55;95835.19;;;9.14;100.00
13604;BME280;24578;48.264;11.436;2022-09-13T02:10:02;95829.78;;;9.06;100.00
13604;BME280;24578;48.264;11.436;2022-09-13T02:13:06;95838.53;;;9.04;100.00
13604;BME280;24578;48.264;11.436;2022-09-13T02:16:10;95832.78;;;9.00;100.00
13604;BME280;24578;48.264;11.436;2022-09-13T02:19:19;95835.59;;;8.97;100.00
13604;BME280;24578;48.264;11.436;2022-09-13T02:22:24;95841.00;;;8.94;100.00
13604;BME280;24578;48.264;11.436;2022-09-13T02:25:26;95842.00;;;8.91;100.00
13604;BME280;24578;48.264;11.436;2022-09-13T02:28:31;95847.38;;;8.88;100.00
13604;BME280;24578;48.264;11.436;2022-09-13T02:31:33;95841.41;;;8.88;100.00
13604;BME280;24578;48.264;11.436;2022-09-13T02:34:37;95843.28;;;8.86;100.00
13604;BME280;24578;48.264;11.436;2022-09-13T02:37:38;95845.13;;;8.83;100.00
13604;BME280;24578;48.264;11.436;2022-09-13T02:40:56;95841.84;;;8.81;100.00
13604;BME280;24578;48.264;11.436;2022-09-13T02:44:01;95849.72;;;8.80;100.00
13604;BME280;24578;48.264;11.436;2022-09-13T02:56:28;95845.81;;;8.74;100.00
13604;BME280;24578;48.264;11.436;2022-09-13T02:59:32;95841.78;;;8.70;100.00
13604;BME280;24578;48.264;11.436;2022-09-13T03:02:33;95843.78;;;8.66;100.00
13604;BME280;24578;48.264;11.436;2022-09-13T03:05:34;95850.00;;;8.64;100.00
13604;BME280;24578;48.264;11.436;2022-09-13T03:08:34;95852.78;;;8.61;100.00
13604;BME280;24578;48.264;11.436;2022-09-13T03:14:44;95854.13;;;8.53;100.00
13604;BME280;24578;48.264;11.436;2022-09-13T03:21:05;95842.38;;;8.49;100.00
13604;BME280;24578;48.264;11.436;2022-09-13T03:24:13;95842.38;;;8.49;100.00
13604;BME280;24578;48.264;11.436;2022-09-13T03:30:17;95826.59;;;8.54;100.00
13604;BME280;24578;48.264;11.436;2022-09-13T03:33:28;95816.28;;;8.54;100.00
13604;BME280;24578;48.264;11.436;2022-09-13T03:39:46;95836.66;;;8.57;100.00
13604;BME280;24578;48.264;11.436;2022-09-13T03:46:18;95845.38;;;8.56;100.00
13604;BME280;24578;48.264;11.436;2022-09-13T03:49:21;95837.63;;;8.56;100.00
13604;BME280;24578;48.264;11.436;2022-09-13T03:52:22;95845.47;;;8.55;100.00
13604;BME280;24578;48.264;11.436;2022-09-13T03:55:24;95839.78;;;8.49;100.00
13604;BME280;24578;48.264;11.436;2022-09-13T03:58:25;95837.41;;;8.46;100.00
13604;BME280;24578;48.264;11.436;2022-09-13T04:01:25;95834.13;;;8.44;100.00
13604;BME280;24578;48.264;11.436;2022-09-13T04:04:25;95836.78;;;8.43;100.00
13604;BME280;24578;48.264;11.436;2022-09-13T04:07:26;95842.88;;;8.42;100.00
13604;BME280;24578;48.264;11.436;2022-09-13T04:10:27;95830.94;;;8.41;100.00
13604;BME280;24578;48.264;11.436;2022-09-13T04:13:27;95835.25;;;8.40;100.00
13604;BME280;24578;48.264;11.436;2022-09-13T04:16:27;95837.09;;;8.38;100.00
13604;BME280;24578;48.264;11.436;2022-09-13T04:19:28;95841.34;;;8.39;100.00
13604;BME280;24578;48.264;11.436;2022-09-13T04:22:28;95853.50;;;8.37;100.00
13604;BME280;24578;48.264;11.436;2022-09-13T04:25:28;95850.94;;;8.37;100.00
13604;BME280;24578;48.264;11.436;2022-09-13T04:28:28;95852.69;;;8.36;100.00
13604;BME280;24578;48.264;11.436;2022-09-13T04:31:29;95844.13;;;8.36;100.00
13604;BME280;24578;48.264;11.436;2022-09-13T04:34:32;95844.13;;;8.36;100.00
13604;BME280;24578;48.264;11.436;2022-09-13T04:37:32;95845.06;;;8.35;100.00
13604;BME280;24578;48.264;11.436;2022-09-13T04:40:32;95844.97;;;8.36;100.00
13604;BME280;24578;48.264;11.436;2022-09-13T04:43:33;95849.28;;;8.36;100.00
13604;BME280;24578;48.264;11.436;2022-09-13T04:46:34;95846.72;;;8.36;100.00
13604;BME280;24578;48.264;11.436;2022-09-13T04:49:34;95853.50;;;8.37;100.00
13604;BME280;24578;48.264;11.436;2022-09-13T04:52:35;95852.50;;;8.40;100.00
13604;BME280;24578;48.264;11.436;2022-09-13T04:55:35;95855.88;;;8.40;100.00
13604;BME280;24578;48.264;11.436;2022-09-13T04:58:35;95852.25;;;8.43;100.00
13604;BME280;24578;48.264;11.436;2022-09-13T05:01:36;95852.25;;;8.43;100.00
13604;BME280;24578;48.264;11.436;2022-09-13T05:04:36;95845.16;;;8.46;100.00
13604;BME280;24578;48.264;11.436;2022-09-13T05:07:37;95845.47;;;8.55;100.00
13604;BME280;24578;48.264;11.436;2022-09-13T05:10:38;95843.97;;;8.63;100.00
13604;BME280;24578;48.264;11.436;2022-09-13T05:13:38;95845.09;;;8.72;100.00
13604;BME280;24578;48.264;11.436;2022-09-13T05:16:38;95851.97;;;8.84;100.00
13604;BME280;24578;48.264;11.436;2022-09-13T05:19:39;95854.38;;;8.99;100.00
13604;BME280;24578;48.264;11.436;2022-09-13T05:22:39;95864.53;;;9.13;100.00
13604;BME280;24578;48.264;11.436;2022-09-13T05:25:39;95869.19;;;9.33;100.00
13604;BME280;24578;48.264;11.436;2022-09-13T05:28:40;95869.59;;;9.51;100.00
13604;BME280;24578;48.264;11.436;2022-09-13T05:31:40;95867.31;;;9.70;100.00
13604;BME280;24578;48.264;11.436;2022-09-13T05:34:41;95854.38;;;9.93;100.00
13604;BME280;24578;48.264;11.436;2022-09-13T05:37:41;95850.16;;;10.38;100.00
13604;BME280;24578;48.264;11.436;2022-09-13T05:40:41;95846.84;;;11.35;100.00
13604;BME280;24578;48.264;11.436;2022-09-13T05:43:41;95848.47;;;12.21;100.00
13604;BME280;24578;48.264;11.436;2022-09-13T05:46:41;95844.22;;;12.70;100.00
13604;BME280;24578;48.264;11.436;2022-09-13T05:49:45;95848.16;;;13.45;100.00
13604;BME280;24578;48.264;11.436;2022-09-13T05:52:54;95841.66;;;14.26;100.00
13604;BME280;24578;48.264;11.436;2022-09-13T05:55:55;95841.88;;;14.70;100.00
13604;BME280;24578;48.264;11.436;2022-09-13T05:58:55;95828.03;;;16.13;98.23
13604;BME280;24578;48.264;11.436;2022-09-13T06:01:55;95829.53;;;17.43;86.84
13604;BME280;24578;48.264;11.436;2022-09-13T06:04:55;95825.50;;;18.61;85.43
13604;BME280;24578;48.264;11.436;2022-09-13T06:07:56;95838.16;;;19.59;75.29
13604;BME280;24578;48.264;11.436;2022-09-13T06:10:57;95847.25;;;20.39;72.96
13604;BME280;24578;48.264;11.436;2022-09-13T06:13:57;95839.25;;;21.14;67.61
13604;BME280;24578;48.264;11.436;2022-09-13T06:16:57;95834.97;;;21.35;65.17
13604;BME280;24578;48.264;11.436;2022-09-13T06:19:57;95818.66;;;22.25;61.61
13604;BME280;24578;48.264;11.436;2022-09-13T06:22:58;95823.66;;;23.17;56.76
13604;BME280;24578;48.264;11.436;2022-09-13T06:26:08;95817.41;;;23.79;53.58
13604;BME280;24578;48.264;11.436;2022-09-13T06:29:09;95816.38;;;24.07;51.32
13604;BME280;24578;48.264;11.436;2022-09-13T06:32:09;95819.25;;;23.98;50.32
13604;BME280;24578;48.264;11.436;2022-09-13T06:35:10;95810.31;;;23.99;47.46
13604;BME280;24578;48.264;11.436;2022-09-13T06:38:10;95804.94;;;24.26;45.33
13604;BME280;24578;48.264;11.436;2022-09-13T06:41:18;95810.91;;;24.74;45.18
13604;BME280;24578;48.264;11.436;2022-09-13T06:44:19;95813.09;;;25.22;43.38
13604;BME280;24578;48.264;11.436;2022-09-13T06:47:19;95814.28;;;25.84;42.41
13604;BME280;24578;48.264;11.436;2022-09-13T06:50:19;95810.75;;;25.65;42.08
13604;BME280;24578;48.264;11.436;2022-09-13T06:53:19;95804.41;;;25.91;40.75
13604;BME280;24578;48.264;11.436;2022-09-13T06:56:20;95809.53;;;26.11;42.26
13604;BME280;24578;48.264;11.436;2022-09-13T06:59:21;95801.44;;;26.81;40.25
13604;BME280;24578;48.264;11.436;2022-09-13T07:02:21;95797.03;;;27.47;37.89
13604;BME280;24578;48.264;11.436;2022-09-13T07:05:23;95805.03;;;28.07;36.67
13604;BME280;24578;48.264;11.436;2022-09-13T07:08:24;95805.03;;;28.83;34.82
13604;BME280;24578;48.264;11.436;2022-09-13T07:11:24;95797.66;;;28.74;34.03
13604;BME280;24578;48.264;11.436;2022-09-13T07:14:26;95811.66;;;29.27;33.83
13604;BME280;24578;48.264;11.436;2022-09-13T07:17:26;95808.22;;;29.60;33.66
13604;BME280;24578;48.264;11.436;2022-09-13T07:20:26;95807.59;;;30.49;32.53
13604;BME280;24578;48.264;11.436;2022-09-13T07:23:27;95798.94;;;30.59;31.66
13604;BME280;24578;48.264;11.436;2022-09-13T07:26:27;95808.59;;;30.87;31.32
13604;BME280;24578;48.264;11.436;2022-09-13T07:29:27;95803.00;;;30.22;31.93
13604;BME280;24578;48.264;11.436;2022-09-13T07:32:30;95803.00;;;30.89;31.63
13604;BME280;24578;48.264;11.436;2022-09-13T07:35:30;95796.91;;;30.49;30.87
13604;BME280;24578;48.264;11.436;2022-09-13T07:38:31;95799.47;;;29.31;32.65
13604;BME280;24578;48.264;11.436;2022-09-13T07:41:32;95805.38;;;29.67;32.84
13604;BME280;24578;48.264;11.436;2022-09-13T07:44:33;95806.22;;;30.24;32.22
13604;BME280;24578;48.264;11.436;2022-09-13T07:47:33;95806.06;;;30.75;32.32
13604;BME280;24578;48.264;11.436;2022-09-13T07:50:33;95801.63;;;31.36;31.00
13604;BME280;24578;48.264;11.436;2022-09-13T07:53:34;95799.56;;;32.24;30.51
13604;BME280;24578;48.264;11.436;2022-09-13T07:56:35;95787.47;;;32.79;28.35
13604;BME280;24578;48.264;11.436;2022-09-13T07:59:36;95766.56;;;32.71;28.41
13604;BME280;24578;48.264;11.436;2022-09-13T08:02:37;95784.88;;;33.00;27.71
13604;BME280;24578;48.264;11.436;2022-09-13T08:05:38;95795.63;;;33.21;27.42
13604;BME280;24578;48.264;11.436;2022-09-13T08:08:38;95795.75;;;32.68;27.60
13604;BME280;24578;48.264;11.436;2022-09-13T08:11:43;95792.00;;;32.10;28.65
13604;BME280;24578;48.264;11.436;2022-09-13T08:14:43;95797.22;;;31.84;29.52
13604;BME280;24578;48.264;11.436;2022-09-13T08:17:43;95794.34;;;31.04;30.27
13604;BME280;24578;48.264;11.436;2022-09-13T08:20:43;95802.56;;;30.30;31.83
13604;BME280;24578;48.264;11.436;2022-09-13T08:23:44;95807.75;;;29.81;32.66
13604;BME280;24578;48.264;11.436;2022-09-13T08:26:44;95805.56;;;29.14;34.75
13604;BME280;24578;48.264;11.436;2022-09-13T08:29:45;95795.00;;;29.49;34.86
13604;BME280;24578;48.264;11.436;2022-09-13T08:32:48;95787.34;;;29.91;34.06
13604;BME280;24578;48.264;11.436;2022-09-13T08:35:51;95793.47;;;30.71;32.46
13604;BME280;24578;48.264;11.436;2022-09-13T08:38:56;95784.34;;;30.66;32.96
13604;BME280;24578;48.264;11.436;2022-09-13T08:42:42;95786.13;;;31.38;31.76
13604;BME280;24578;48.264;11.436;2022-09-13T08:45:21;95787.47;;;32.79;29.16
13604;BME280;24578;48.264;11.436;2022-09-13T08:48:31;95783.56;;;34.01;27.78
13604;BME280;24578;48.264;11.436;2022-09-13T08:51:37;95787.25;;;34.86;27.08
13604;BME280;24578;48.264;11.436;2022-09-13T08:54:40;95787.47;;;35.75;26.11
13604;BME280;24578;48.264;11.436;2022-09-13T08:57:43;95787.53;;;35.94;25.73
13604;BME280;24578;48.264;11.436;2022-09-13T09:00:48;95781.88;;;35.31;26.14
13604;BME280;24578;48.264;11.436;2022-09-13T09:03:57;95776.97;;;35.04;26.40
13604;BME280;24578;48.264;11.436;2022-09-13T09:07:21;95776.72;;;35.00;27.18
13604;BME280;24578;48.264;11.436;2022-09-13T09:10:23;95773.72;;;36.30;25.16
13604;BME280;24578;48.264;11.436;2022-09-13T09:16:30;95763.81;;;37.92;23.71
13604;BME280;24578;48.264;11.436;2022-09-13T09:19:36;95763.81;;;36.88;24.16
13604;BME280;24578;48.264;11.436;2022-09-13T09:22:39;95763.81;;;36.01;25.84
13604;BME280;24578;48.264;11.436;2022-09-13T09:25:39;95756.31;;;37.23;23.82
13604;BME280;24578;48.264;11.436;2022-09-13T09:28:39;95753.59;;;37.42;23.67
13604;BME280;24578;48.264;11.436;2022-09-13T09:35:09;95757.13;;;38.04;22.71
13604;BME280;24578;48.264;11.436;2022-09-13T09:41:31;95749.19;;;37.80;23.46
13604;BME280;24578;48.264;11.436;2022-09-13T09:44:32;95751.06;;;37.65;24.08
13604;BME280;24578;48.264;11.436;2022-09-13T09:47:44;95745.56;;;37.56;24.21
13604;BME280;24578;48.264;11.436;2022-09-13T09:50:49;95746.84;;;37.45;24.44
13604;BME280;24578;48.264;11.436;2022-09-13T09:53:52;95743.44;;;37.53;23.96
13604;BME280;24578;48.264;11.436;2022-09-13T09:56:54;95733.66;;;37.24;24.04
13604;BME280;24578;48.264;11.436;2022-09-13T10:00:01;95725.31;;;37.07;23.94
13604;BME280;24578;48.264;11.436;2022-09-13T10:03:16;95726.25;;;36.78;24.62
13604;BME280;24578;48.264;11.436;2022-09-13T10:06:18;95722.00;;;36.09;25.33
13604;BME280;24578;48.264;11.436;2022-09-13T10:09:19;95713.53;;;35.67;25.34
13604;BME280;24578;48.264;11.436;2022-09-13T10:12:26;95721.16;;;35.25;25.65
13604;BME280;24578;48.264;11.436;2022-09-13T10:15:28;95712.84;;;35.21;26.64
13604;BME280;24578;48.264;11.436;2022-09-13T10:18:33;95707.13;;;35.63;24.55
13604;BME280;24578;48.264;11.436;2022-09-13T10:21:34;95713.94;;;35.20;24.77
13604;BME280;24578;48.264;11.436;2022-09-13T10:24:35;95706.91;;;34.35;26.25
13604;BME280;24578;48.264;11.436;2022-09-13T10:27:36;95703.94;;;34.46;25.34
13604;BME280;24578;48.264;11.436;2022-09-13T10:30:40;95707.03;;;34.04;25.75
13604;BME280;24578;48.264;11.436;2022-09-13T10:34:03;95699.38;;;34.47;26.25
13604;BME280;24578;48.264;11.436;2022-09-13T10:37:11;95702.97;;;34.72;24.79
13604;BME280;24578;48.264;11.436;2022-09-13T10:40:30;95703.25;;;34.70;25.29
13604;BME280;24578;48.264;11.436;2022-09-13T10:43:37;95700.41;;;34.51;27.23
13604;BME280;24578;48.264;11.436;2022-09-13T10:46:37;95691.03;;;34.43;26.22
13604;BME280;24578;48.264;11.436;2022-09-13T10:52:49;95714.13;;;34.50;26.82
13604;BME280;24578;48.264;11.436;2022-09-13T10:55:53;95717.25;;;34.67;26.62
13604;BME280;24578;48.264;11.436;2022-09-13T11:15:09;95705.00;;;32.87;28.34
13604;BME280;24578;48.264;11.436;2022-09-13T11:24:37;95688.25;;;32.33;29.53
13604;BME280;24578;48.264;11.436;2022-09-13T11:27:51;95693.44;;;31.92;29.84
13604;BME280;24578;48.264;11.436;2022-09-13T11:37:58;95691.44;;;30.68;32.05
13604;BME280;24578;48.264;11.436;2022-09-13T11:40:50;95697.34;;;30.48;32.63
13604;BME280;24578;48.264;11.436;2022-09-13T11:53:31;95712.72;;;29.74;33.85
13604;BME280;24578;48.264;11.436;2022-09-13T11:56:40;95708.03;;;29.65;34.33
13604;BME280;24578;48.264;11.436;2022-09-13T12:03:02;95703.47;;;29.82;34.14
13604;BME280;24578;48.264;11.436;2022-09-13T12:06:13;95699.81;;;30.05;34.28
13604;BME280;24578;48.264;11.436;2022-09-13T12:09:31;95701.22;;;30.58;34.03
13604;BME280;24578;48.264;11.436;2022-09-13T12:12:33;95701.72;;;30.55;32.21
13604;BME280;24578;48.264;11.436;2022-09-13T12:15:38;95696.25;;;30.44;33.04
13604;BME280;24578;48.264;11.436;2022-09-13T12:18:43;95688.97;;;30.89;31.59
13604;BME280;24578;48.264;11.436;2022-09-13T12:21:45;95680.06;;;31.43;31.51
13604;BME280;24578;48.264;11.436;2022-09-13T12:24:49;95677.19;;;31.61;29.20
13604;BME280;24578;48.264;11.436;2022-09-13T12:31:00;95675.56;;;32.02;30.03
13604;BME280;24578;48.264;11.436;2022-09-13T12:34:04;95670.75;;;32.10;29.20
13604;BME280;24578;48.264;11.436;2022-09-13T12:46:52;95661.41;;;32.17;28.45
13604;BME280;24578;48.264;11.436;2022-09-13T13:06:34;95656.31;;;32.11;28.40
13604;BME280;24578;48.264;11.436;2022-09-13T13:18:44;95659.41;;;32.45;30.04
13604;BME280;24578;48.264;11.436;2022-09-13T13:21:45;95661.00;;;32.57;28.70
13604;BME280;24578;48.264;11.436;2022-09-13T13:24:46;95649.78;;;32.70;28.47
13604;BME280;24578;48.264;11.436;2022-09-13T13:27:46;95649.56;;;32.82;29.09
13604;BME280;24578;48.264;11.436;2022-09-13T13:30:51;95639.06;;;32.70;29.18
13604;BME280;24578;48.264;11.436;2022-09-13T13:33:53;95626.19;;;32.52;29.17
13604;BME280;24578;48.264;11.436;2022-09-13T13:37:01;95632.28;;;32.21;29.17
13604;BME280;24578;48.264;11.436;2022-09-13T13:40:19;95633.84;;;32.17;30.49
13604;BME280;24578;48.264;11.436;2022-09-13T13:46:28;95624.47;;;32.09;28.78
13604;BME280;24578;48.264;11.436;2022-09-13T13:52:38;95615.63;;;32.03;30.61
13604;BME280;24578;48.264;11.436;2022-09-13T13:55:48;95625.50;;;31.93;30.61
13604;BME280;24578;48.264;11.436;2022-09-13T13:59:04;95625.16;;;31.79;30.93
13604;BME280;24578;48.264;11.436;2022-09-13T14:02:10;95614.75;;;31.87;30.38
13604;BME280;24578;48.264;11.436;2022-09-13T14:08:35;95616.44;;;32.09;28.62
13604;BME280;24578;48.264;11.436;2022-09-13T14:11:50;95615.97;;;31.59;29.53
13604;BME280;24578;48.264;11.436;2022-09-13T14:21:33;95616.13;;;31.37;30.16
13604;BME280;24578;48.264;11.436;2022-09-13T14:24:37;95622.09;;;31.11;29.68
13604;BME280;24578;48.264;11.436;2022-09-13T14:27:38;95616.41;;;31.03;29.25
13604;BME280;24578;48.264;11.436;2022-09-13T14:30:39;95624.25;;;30.82;30.26
13604;BME280;24578;48.264;11.436;2022-09-13T14:33:39;95624.94;;;30.67;30.20
13604;BME280;24578;48.264;11.436;2022-09-13T14:36:40;95618.75;;;30.61;31.07
13604;BME280;24578;48.264;11.436;2022-09-13T14:43:23;95600.91;;;30.40;28.60
13604;BME280;24578;48.264;11.436;2022-09-13T14:46:24;95599.66;;;30.20;29.90
13604;BME280;24578;48.264;11.436;2022-09-13T14:49:29;95600.59;;;30.08;29.38
13604;BME280;24578;48.264;11.436;2022-09-13T14:52:35;95598.38;;;30.00;30.68
13604;BME280;24578;48.264;11.436;2022-09-13T14:55:38;95588.88;;;29.87;32.16
13604;BME280;24578;48.264;11.436;2022-09-13T14:58:44;95588.50;;;29.78;32.45
13604;BME280;24578;48.264;11.436;2022-09-13T15:01:45;95585.47;;;29.47;32.33
13604;BME280;24578;48.264;11.436;2022-09-13T15:04:51;95582.94;;;29.19;32.73
13604;BME280;24578;48.264;11.436;2022-09-13T15:07:52;95570.22;;;28.86;34.28
13604;BME280;24578;48.264;11.436;2022-09-13T15:10:52;95572.78;;;28.64;34.12
13604;BME280;24578;48.264;11.436;2022-09-13T15:20:10;95565.56;;;28.02;36.52
13604;BME280;24578;48.264;11.436;2022-09-13T15:23:14;95556.84;;;27.89;35.86
13604;BME280;24578;48.264;11.436;2022-09-13T15:26:21;95552.03;;;27.74;36.06
13604;BME280;24578;48.264;11.436;2022-09-13T15:29:21;95543.19;;;27.57;35.74
13604;BME280;24578;48.264;11.436;2022-09-13T15:32:23;95543.41;;;27.43;36.19
13604;BME280;24578;48.264;11.436;2022-09-13T15:35:28;95533.88;;;27.30;37.09
13604;BME280;24578;48.264;11.436;2022-09-13T15:38:30;95534.94;;;27.17;37.03
13604;BME280;24578;48.264;11.436;2022-09-13T15:41:32;95528.72;;;27.00;37.62
13604;BME280;24578;48.264;11.436;2022-09-13T15:44:34;95525.50;;;26.86;38.48
13604;BME280;24578;48.264;11.436;2022-09-13T15:47:34;95528.91;;;26.74;39.01
13604;BME280;24578;48.264;11.436;2022-09-13T15:50:34;95530.41;;;26.58;38.69
13604;BME280;24578;48.264;11.436;2022-09-13T15:53:36;95524.97;;;26.41;39.49
13604;BME280;24578;48.264;11.436;2022-09-13T15:56:37;95523.81;;;26.25;40.79
13604;BME280;24578;48.264;11.436;2022-09-13T15:59:40;95516.06;;;26.12;41.65
13604;BME280;24578;48.264;11.436;2022-09-13T16:02:41;95517.00;;;25.99;41.72
13604;BME280;24578;48.264;11.436;2022-09-13T16:05:41;95537.81;;;25.83;42.93
13604;BME280;24578;48.264;11.436;2022-09-13T16:08:41;95531.31;;;25.67;43.33
13604;BME280;24578;48.264;11.436;2022-09-13T16:11:41;95525.72;;;25.57;44.25
13604;BME280;24578;48.264;11.436;2022-09-13T16:14:41;95532.72;;;25.51;44.59
13604;BME280;24578;48.264;11.436;2022-09-13T16:17:42;95530.38;;;25.43;45.06
13604;BME280;24578;48.264;11.436;2022-09-13T16:20:42;95528.59;;;25.37;45.58
13604;BME280;24578;48.264;11.436;2022-09-13T16:23:43;95537.88;;;25.28;46.63
13604;BME280;24578;48.264;11.436;2022-09-13T16:26:44;95545.72;;;25.16;47.84
13604;BME280;24578;48.264;11.436;2022-09-13T16:29:44;95536.06;;;25.03;49.22
13604;BME280;24578;48.264;11.436;2022-09-13T16:32:44;95539.03;;;24.95;49.92
13604;BME280;24578;48.264;11.436;2022-09-13T16:35:45;95536.28;;;24.83;50.60
13604;BME280;24578;48.264;11.436;2022-09-13T16:38:46;95533.31;;;24.72;51.94
13604;BME280;24578;48.264;11.436;2022-09-13T16:41:47;95538.25;;;24.62;52.86
13604;BME280;24578;48.264;11.436;2022-09-13T16:44:47;95529.03;;;24.46;54.01
13604;BME280;24578;48.264;11.436;2022-09-13T16:47:48;95530.34;;;24.30;54.37
13604;BME280;24578;48.264;11.436;2022-09-13T16:50:48;95531.88;;;24.19;55.08
13604;BME280;24578;48.264;11.436;2022-09-13T16:53:49;95527.09;;;24.02;56.42
13604;BME280;24578;48.264;11.436;2022-09-13T16:56:49;95535.50;;;23.86;57.91
13604;BME280;24578;48.264;11.436;2022-09-13T16:59:50;95537.63;;;23.70;58.73
13604;BME280;24578;48.264;11.436;2022-09-13T17:02:51;95536.06;;;23.56;59.00
13604;BME280;24578;48.264;11.436;2022-09-13T17:05:58;95538.94;;;23.41;59.89
13604;BME280;24578;48.264;11.436;2022-09-13T17:08:59;95534.94;;;23.32;60.43
13604;BME280;24578;48.264;11.436;2022-09-13T17:12:00;95532.72;;;23.22;61.17
13604;BME280;24578;48.264;11.436;2022-09-13T17:15:01;95541.44;;;23.09;62.04
13604;BME280;24578;48.264;11.436;2022-09-13T17:18:01;95536.59;;;22.99;63.40
13604;BME280;24578;48.264;11.436;2022-09-13T17:21:02;95531.97;;;22.88;64.08
13604;BME280;24578;48.264;11.436;2022-09-13T17:24:02;95521.63;;;22.79;64.46
13604;BME280;24578;48.264;11.436;2022-09-13T17:27:03;95517.19;;;22.66;65.39
13604;BME280;24578;48.264;11.436;2022-09-13T17:30:05;95525.91;;;22.54;66.64
13604;BME280;24578;48.264;11.436;2022-09-13T17:33:06;95524.88;;;22.41;67.69
13604;BME280;24578;48.264;11.436;2022-09-13T17:36:08;95522.00;;;22.29;68.92
13604;BME280;24578;48.264;11.436;2022-09-13T17:39:09;95517.75;;;22.15;69.84
13604;BME280;24578;48.264;11.436;2022-09-13T17:42:09;95518.34;;;21.97;70.38
13604;BME280;24578;48.264;11.436;2022-09-13T17:45:10;95519.31;;;21.82;70.81
13604;BME280;24578;48.264;11.436;2022-09-13T17:48:11;95522.72;;;21.69;72.34
13604;BME280;24578;48.264;11.436;2022-09-13T17:51:13;95515.59;;;21.56;72.86
13604;BME280;24578;48.264;11.436;2022-09-13T17:54:13;95513.50;;;21.45;73.85
13604;BME280;24578;48.264;11.436;2022-09-13T17:57:13;95520.97;;;21.35;75.34
13604;BME280;24578;48.264;11.436;2022-09-13T18:00:14;95518.91;;;21.23;75.41
13604;BME280;24578;48.264;11.436;2022-09-13T18:03:15;95515.00;;;21.12;76.34
13604;BME280;24578;48.264;11.436;2022-09-13T18:06:15;95516.34;;;21.02;77.16
13604;BME280;24578;48.264;11.436;2022-09-13T18:09:16;95511.63;;;20.90;79.29
13604;BME280;24578;48.264;11.436;2022-09-13T18:12:16;95505.50;;;20.83;79.95
13604;BME280;24578;48.264;11.436;2022-09-13T18:15:16;95515.53;;;20.73;81.18
13604;BME280;24578;48.264;11.436;2022-09-13T18:18:16;95513.03;;;20.64;81.31
13604;BME280;24578;48.264;11.436;2022-09-13T18:21:17;95517.22;;;20.52;82.55
13604;BME280;24578;48.264;11.436;2022-09-13T18:24:18;95515.38;;;20.46;83.58
13604;BME280;24578;48.264;11.436;2022-09-13T18:27:18;95512.22;;;20.35;84.18
13604;BME280;24578;48.264;11.436;2022-09-13T18:30:18;95522.25;;;20.25;84.86
13604;BME280;24578;48.264;11.436;2022-09-13T18:33:19;95521.00;;;20.21;85.38
13604;BME280;24578;48.264;11.436;2022-09-13T18:36:20;95524.19;;;20.16;86.25
13604;BME280;24578;48.264;11.436;2022-09-13T18:39:21;95520.69;;;20.09;86.48